createdAt,value
2019-02-02T00:03:42.419Z,17.97
2019-02-02T00:08:43.778Z,21.23
2019-02-02T00:13:45.163Z,24.00
2019-02-02T00:18:46.560Z,22.33
2019-02-02T00:23:48.044Z,21.20
2019-02-02T00:28:50.393Z,22.23
2019-02-02T00:33:51.749Z,21.93
2019-02-02T00:38:53.099Z,25.33
2019-02-02T00:43:54.494Z,19.77
2019-02-02T00:48:55.899Z,21.13
2019-02-02T00:53:57.351Z,19.77
2019-02-02T00:58:58.712Z,21.30
2019-02-02T01:04:00.101Z,24.77
2019-02-02T01:09:01.441Z,23.20
2019-02-02T01:14:02.806Z,20.67
2019-02-02T01:19:04.273Z,20.63
2019-02-02T01:24:05.723Z,21.57
2019-02-02T01:29:07.207Z,18.00
2019-02-02T01:34:08.527Z,21.43
2019-02-02T01:39:09.885Z,20.30
2019-02-02T01:44:11.234Z,17.63
2019-02-02T01:49:12.609Z,22.37
2019-02-02T01:54:13.931Z,17.17
2019-02-02T01:59:15.332Z,18.80
2019-02-02T02:04:16.712Z,18.50
2019-02-02T02:09:18.033Z,16.63
2019-02-02T02:14:19.352Z,20.80
2019-02-02T02:19:20.652Z,17.70
2019-02-02T02:24:22.086Z,19.73
2019-02-02T02:29:23.493Z,20.13
2019-02-02T02:34:25.658Z,19.30
2019-02-02T02:39:26.973Z,19.63
2019-02-02T02:44:28.310Z,19.37
2019-02-02T02:49:29.630Z,19.97
2019-02-02T02:54:31.007Z,18.60
2019-02-02T02:59:32.357Z,19.10
2019-02-02T03:04:33.723Z,18.33
2019-02-02T03:09:35.099Z,19.10
2019-02-02T03:14:36.454Z,19.50
2019-02-02T03:19:37.778Z,15.43
2019-02-02T03:24:39.182Z,15.37
2019-02-02T03:29:40.475Z,14.13
2019-02-02T03:34:41.807Z,18.93
2019-02-02T03:39:43.176Z,15.40
2019-02-02T03:44:44.496Z,16.87
2019-02-02T03:49:45.825Z,16.33
2019-02-02T03:54:47.185Z,16.23
2019-02-02T03:59:48.558Z,20.77
2019-02-02T04:04:49.988Z,16.43
2019-02-02T04:09:51.342Z,17.33
2019-02-02T04:14:52.649Z,20.27
2019-02-02T04:19:54.041Z,19.80
2019-02-02T04:24:55.376Z,18.13
2019-02-02T04:29:56.773Z,17.23
2019-02-02T04:34:58.218Z,20.43
2019-02-02T04:40:00.400Z,18.20
2019-02-02T04:45:02.487Z,19.33
2019-02-02T04:50:04.666Z,15.00
2019-02-02T04:55:06.879Z,17.70
2019-02-02T05:00:09.925Z,17.87
2019-02-02T05:05:11.281Z,15.97
2019-02-02T05:10:12.699Z,17.00
2019-02-02T05:15:14.101Z,19.10
2019-02-02T05:20:16.330Z,15.80
2019-02-02T05:25:18.399Z,17.13
2019-02-02T05:30:23.477Z,14.37
2019-02-02T05:35:24.873Z,16.27
2019-02-02T05:40:26.177Z,18.40
2019-02-02T05:45:27.530Z,16.40
2019-02-02T05:50:29.122Z,17.70
2019-02-02T05:55:35.380Z,18.17
2019-02-02T06:00:38.729Z,15.90
2019-02-02T06:05:40.789Z,16.33
2019-02-02T06:10:42.269Z,18.03
2019-02-02T06:15:44.320Z,19.67
2019-02-02T06:20:46.042Z,14.43
2019-02-02T06:25:47.362Z,17.77
2019-02-02T06:30:48.680Z,19.03
2019-02-02T06:35:50.036Z,18.13
2019-02-02T06:40:51.379Z,16.80
2019-02-02T06:45:53.477Z,19.40
2019-02-02T06:50:54.800Z,18.73
2019-02-02T06:55:56.115Z,19.23
2019-02-02T07:00:57.427Z,16.97
2019-02-02T07:06:00.834Z,19.23
2019-02-02T07:11:02.211Z,18.47
2019-02-02T07:16:03.661Z,14.27
2019-02-02T07:21:05.086Z,18.77
2019-02-02T07:26:06.415Z,20.97
2019-02-02T07:31:07.716Z,20.33
2019-02-02T07:36:09.117Z,20.80
2019-02-02T07:41:10.473Z,22.77
2019-02-02T07:46:15.003Z,21.23
2019-02-02T07:51:14.007Z,19.83
2019-02-02T07:56:15.376Z,17.90
2019-02-02T08:01:16.816Z,19.90
2019-02-02T08:06:18.192Z,22.40
2019-02-02T08:11:19.505Z,19.40
2019-02-02T08:16:20.830Z,21.47
2019-02-02T08:21:22.151Z,18.07
2019-02-02T08:26:24.217Z,21.03
2019-02-02T08:31:25.568Z,16.63
2019-02-02T08:36:26.892Z,21.40
2019-02-02T08:41:28.400Z,19.63
2019-02-02T08:46:30.489Z,19.07
2019-02-02T08:51:31.879Z,19.50
2019-02-02T08:56:34.120Z,18.27
2019-02-02T09:01:35.387Z,18.67
2019-02-02T09:06:38.984Z,16.07
2019-02-02T09:11:38.032Z,16.13
2019-02-02T09:16:39.348Z,21.43
2019-02-02T09:21:40.953Z,21.07
2019-02-02T09:26:42.363Z,18.87
2019-02-02T09:31:43.827Z,19.47
2019-02-02T09:36:45.144Z,19.33
2019-02-02T09:41:46.556Z,14.53
2019-02-02T09:46:47.958Z,14.53
2019-02-02T09:51:49.393Z,15.10
2019-02-02T09:56:50.726Z,11.77
2019-02-02T10:01:52.192Z,11.83
2019-02-02T10:07:15.828Z,10.07
2019-02-02T10:12:21.291Z,9.93
2019-02-02T10:17:23.424Z,10.27
2019-02-02T10:22:24.761Z,11.43
2019-02-02T10:27:26.147Z,12.57
2019-02-02T10:32:28.529Z,9.03
2019-02-02T10:37:40.465Z,7.83
2019-02-02T10:42:42.553Z,10.20
2019-02-02T10:47:44.064Z,6.73
2019-02-02T10:52:50.627Z,6.60
2019-02-02T10:57:52.277Z,5.43
2019-02-02T11:02:55.922Z,6.53
2019-02-02T11:07:57.321Z,5.10
2019-02-02T11:12:58.599Z,5.57
2019-02-02T11:18:00.203Z,4.27
2019-02-02T11:23:02.856Z,6.00
2019-02-02T11:28:04.274Z,6.90
2019-02-02T11:33:07.091Z,3.17
2019-02-02T11:38:08.474Z,5.03
2019-02-02T11:43:09.793Z,5.37
2019-02-02T11:48:14.895Z,6.17
2019-02-02T11:53:15.130Z,5.00
2019-02-02T11:58:16.472Z,4.60
2019-02-02T12:03:17.816Z,4.90
2019-02-02T12:08:26.996Z,4.33
2019-02-02T12:13:28.411Z,3.83
2019-02-02T12:18:29.713Z,4.07
2019-02-02T12:23:31.071Z,4.60
2019-02-02T12:28:32.436Z,4.83
2019-02-02T12:33:33.868Z,6.83
2019-02-02T12:38:36.760Z,4.83
2019-02-02T12:43:38.597Z,4.47
2019-02-02T12:48:39.991Z,3.80
2019-02-02T12:53:41.360Z,3.73
2019-02-02T12:58:42.879Z,3.73
2019-02-02T13:03:46.279Z,3.87
2019-02-02T13:08:48.816Z,3.93
2019-02-02T13:13:50.143Z,4.30
2019-02-02T13:18:51.633Z,3.70
2019-02-02T13:23:53.063Z,3.53
2019-02-02T13:28:55.329Z,3.87
2019-02-02T13:33:55.864Z,3.57
2019-02-02T13:38:58.343Z,2.63
2019-02-02T13:43:59.854Z,4.07
2019-02-02T13:49:01.228Z,3.10
2019-02-02T13:54:11.200Z,2.77
2019-02-02T13:59:24.130Z,2.97
2019-02-02T14:04:29.061Z,2.10
2019-02-02T14:09:31.214Z,3.60
2019-02-02T14:14:32.592Z,2.00
2019-02-02T14:19:33.996Z,2.87
2019-02-02T14:24:35.329Z,4.03
2019-02-02T14:29:38.407Z,2.13
2019-02-02T14:34:40.667Z,2.03
2019-02-02T14:39:41.420Z,2.50
2019-02-02T14:44:44.725Z,2.37
2019-02-02T14:49:54.764Z,1.77
2019-02-02T14:54:56.081Z,2.83
2019-02-02T14:59:57.535Z,1.70
2019-02-02T15:04:58.870Z,3.53
2019-02-02T15:10:00.338Z,3.00
2019-02-02T15:15:01.780Z,3.00
2019-02-02T15:25:33.736Z,2.30
2019-02-02T15:30:35.118Z,5.23
2019-02-02T15:35:36.479Z,5.10
2019-02-02T15:40:37.818Z,6.00
2019-02-02T15:45:39.225Z,6.27
2019-02-02T15:50:41.459Z,7.40
2019-02-02T15:55:50.487Z,4.20
2019-02-02T16:01:00.626Z,5.37
2019-02-02T16:06:01.978Z,6.87
2019-02-02T16:11:03.369Z,7.10
2019-02-02T16:16:04.700Z,7.67
2019-02-02T16:21:06.377Z,7.20
2019-02-02T16:26:07.716Z,8.13
2019-02-02T16:31:10.052Z,9.53
2019-02-02T16:36:12.536Z,8.43
2019-02-02T16:41:13.979Z,9.47
2019-02-02T16:46:15.777Z,7.70
2019-02-02T16:51:17.294Z,7.77
2019-02-02T16:56:18.679Z,9.53
2019-02-02T17:01:20.049Z,10.60
2019-02-02T17:06:21.823Z,9.43
2019-02-02T17:11:26.778Z,7.67
2019-02-02T17:16:28.311Z,10.10
2019-02-02T17:21:29.784Z,8.43
2019-02-02T17:26:31.331Z,9.93
2019-02-02T17:31:32.733Z,11.47
2019-02-02T17:36:34.254Z,12.10
2019-02-02T17:41:37.348Z,11.87
2019-02-02T17:46:39.699Z,11.03
2019-02-02T17:51:41.028Z,11.70
2019-02-02T17:56:46.120Z,12.17
2019-02-02T18:01:48.354Z,14.40
2019-02-02T18:06:50.430Z,12.73
2019-02-02T18:11:52.366Z,13.43
2019-02-02T18:16:53.764Z,15.50
2019-02-02T18:22:00.192Z,14.93
2019-02-02T18:27:06.167Z,15.50
2019-02-02T18:32:15.015Z,16.07
2019-02-02T18:37:23.641Z,16.57
2019-02-02T18:42:30.222Z,13.53
2019-02-02T18:47:32.352Z,14.73
2019-02-02T18:52:33.833Z,18.80
2019-02-02T18:57:35.280Z,15.57
2019-02-02T19:02:37.775Z,16.70
2019-02-02T19:07:39.220Z,18.80
2019-02-02T19:12:40.596Z,18.73
2019-02-02T19:17:42.673Z,21.57
2019-02-02T19:22:44.191Z,24.20
2019-02-02T19:27:47.692Z,21.33
2019-02-02T19:32:49.332Z,23.13
2019-02-02T19:37:50.912Z,22.50
2019-02-02T19:42:54.393Z,24.97
2019-02-02T19:47:59.713Z,19.47
2019-02-02T19:53:01.089Z,18.77
2019-02-02T19:58:05.237Z,22.40
2019-02-02T20:03:07.307Z,22.63
2019-02-02T20:08:10.434Z,26.17
2019-02-02T20:13:11.772Z,21.07
2019-02-02T20:18:13.999Z,21.33
2019-02-02T20:23:15.401Z,17.73
2019-02-02T20:28:16.933Z,22.00
2019-02-02T20:33:20.071Z,19.60
2019-02-02T20:38:19.829Z,17.83
2019-02-02T20:43:21.937Z,24.83
2019-02-02T20:48:24.390Z,23.27
2019-02-02T20:53:26.553Z,22.87
2019-02-02T20:58:28.121Z,25.00
2019-02-02T21:03:29.658Z,23.37
2019-02-02T21:08:32.900Z,26.27
2019-02-02T21:13:34.262Z,24.53
2019-02-02T21:18:35.771Z,25.00
2019-02-02T21:23:37.134Z,25.90
2019-02-02T21:28:49.817Z,27.53
2019-02-02T21:34:02.223Z,28.93
2019-02-02T21:39:17.057Z,28.53
2019-02-02T21:44:19.087Z,29.30
2019-02-02T21:49:20.402Z,36.20
2019-02-02T21:54:25.862Z,36.07
2019-02-02T21:59:29.353Z,33.67
2019-02-02T22:04:34.707Z,40.03
2019-02-02T22:09:36.857Z,39.17
2019-02-02T22:14:38.207Z,32.60
2019-02-02T22:19:39.614Z,43.60
2019-02-02T22:24:41.124Z,35.90
2019-02-02T22:29:43.254Z,36.80
2019-02-02T22:34:44.621Z,40.73
2019-02-02T22:39:46.453Z,37.40
2019-02-02T22:44:48.637Z,37.27
2019-02-02T22:49:49.948Z,38.30
2019-02-02T22:54:51.397Z,45.73
2019-02-02T22:59:52.901Z,58.70
2019-02-02T23:04:56.159Z,56.83
2019-02-02T23:15:56.080Z,127.40
2019-02-02T23:20:57.488Z,108.60
2019-02-02T23:25:59.161Z,109.57
2019-02-02T23:31:00.540Z,82.60
2019-02-02T23:36:01.953Z,124.77
2019-02-02T23:41:03.246Z,57.03
2019-02-02T23:46:05.392Z,80.50
2019-02-02T23:51:07.045Z,134.53
2019-02-02T23:56:08.850Z,50.23
